sensor_id;sensor_type;location;lat;lon;timestamp;P1;durP1;ratioP1;P2;durP2;ratioP2
55655;SDS011;41530;52.382;5.270;2023-08-06T00:00:53;6.57;;;4.50;;
55655;SDS011;41530;52.382;5.270;2023-08-06T00:03:20;8.23;;;5.70;;
55655;SDS011;41530;52.382;5.270;2023-08-06T00:05:46;7.30;;;5.28;;
55655;SDS011;41530;52.382;5.270;2023-08-06T00:08:13;7.07;;;4.85;;
55655;SDS011;41530;52.382;5.270;2023-08-06T00:10:39;7.47;;;5.28;;
55655;SDS011;41530;52.382;5.270;2023-08-06T00:13:07;8.63;;;5.97;;
55655;SDS011;41530;52.382;5.270;2023-08-06T00:15:34;7.53;;;5.10;;
55655;SDS011;41530;52.382;5.270;2023-08-06T00:18:01;7.25;;;4.88;;
55655;SDS011;41530;52.382;5.270;2023-08-06T00:20:27;6.60;;;5.22;;
55655;SDS011;41530;52.382;5.270;2023-08-06T00:22:54;6.53;;;5.45;;
55655;SDS011;41530;52.382;5.270;2023-08-06T00:25:21;6.80;;;5.18;;
55655;SDS011;41530;52.382;5.270;2023-08-06T00:27:47;7.00;;;4.90;;
55655;SDS011;41530;52.382;5.270;2023-08-06T00:30:14;6.63;;;4.63;;
55655;SDS011;41530;52.382;5.270;2023-08-06T00:32:41;6.57;;;4.88;;
55655;SDS011;41530;52.382;5.270;2023-08-06T00:35:07;8.77;;;3.92;;
55655;SDS011;41530;52.382;5.270;2023-08-06T00:37:34;6.05;;;4.45;;
55655;SDS011;41530;52.382;5.270;2023-08-06T00:40:01;7.65;;;4.68;;
55655;SDS011;41530;52.382;5.270;2023-08-06T00:42:27;11.52;;;5.18;;
55655;SDS011;41530;52.382;5.270;2023-08-06T00:44:54;6.22;;;4.50;;
55655;SDS011;41530;52.382;5.270;2023-08-06T00:47:21;7.15;;;4.10;;
55655;SDS011;41530;52.382;5.270;2023-08-06T00:49:47;5.45;;;4.50;;
55655;SDS011;41530;52.382;5.270;2023-08-06T00:52:14;7.25;;;3.50;;
55655;SDS011;41530;52.382;5.270;2023-08-06T00:54:41;5.05;;;3.70;;
55655;SDS011;41530;52.382;5.270;2023-08-06T00:57:08;4.57;;;3.65;;
55655;SDS011;41530;52.382;5.270;2023-08-06T00:59:36;9.80;;;3.60;;
55655;SDS011;41530;52.382;5.270;2023-08-06T01:02:03;6.65;;;3.67;;
55655;SDS011;41530;52.382;5.270;2023-08-06T01:04:30;4.28;;;3.67;;
55655;SDS011;41530;52.382;5.270;2023-08-06T01:12:22;4.55;;;3.05;;
55655;SDS011;41530;52.382;5.270;2023-08-06T01:17:48;3.55;;;3.25;;
55655;SDS011;41530;52.382;5.270;2023-08-06T01:20:14;3.72;;;3.13;;
55655;SDS011;41530;52.382;5.270;2023-08-06T01:22:41;4.78;;;3.15;;
55655;SDS011;41530;52.382;5.270;2023-08-06T01:25:08;6.20;;;2.55;;
55655;SDS011;41530;52.382;5.270;2023-08-06T01:27:42;3.42;;;2.70;;
55655;SDS011;41530;52.382;5.270;2023-08-06T01:30:17;3.47;;;2.75;;
55655;SDS011;41530;52.382;5.270;2023-08-06T01:32:50;6.28;;;2.55;;
55655;SDS011;41530;52.382;5.270;2023-08-06T01:35:24;2.25;;;2.05;;
55655;SDS011;41530;52.382;5.270;2023-08-06T01:37:53;3.10;;;2.45;;
55655;SDS011;41530;52.382;5.270;2023-08-06T01:40:20;3.28;;;2.25;;
55655;SDS011;41530;52.382;5.270;2023-08-06T01:42:47;3.15;;;2.25;;
55655;SDS011;41530;52.382;5.270;2023-08-06T01:45:14;4.30;;;2.70;;
55655;SDS011;41530;52.382;5.270;2023-08-06T01:47:40;2.10;;;1.95;;
55655;SDS011;41530;52.382;5.270;2023-08-06T01:50:07;4.82;;;2.15;;
55655;SDS011;41530;52.382;5.270;2023-08-06T01:52:34;3.92;;;2.53;;
55655;SDS011;41530;52.382;5.270;2023-08-06T01:55:01;3.75;;;2.60;;
55655;SDS011;41530;52.382;5.270;2023-08-06T01:57:27;5.80;;;2.97;;
55655;SDS011;41530;52.382;5.270;2023-08-06T01:59:54;3.17;;;2.72;;
55655;SDS011;41530;52.382;5.270;2023-08-06T02:02:21;3.22;;;2.58;;
55655;SDS011;41530;52.382;5.270;2023-08-06T02:04:47;3.00;;;2.70;;
55655;SDS011;41530;52.382;5.270;2023-08-06T02:07:14;6.90;;;2.92;;
55655;SDS011;41530;52.382;5.270;2023-08-06T02:09:41;6.20;;;3.35;;
55655;SDS011;41530;52.382;5.270;2023-08-06T02:12:07;4.22;;;3.05;;
55655;SDS011;41530;52.382;5.270;2023-08-06T02:14:34;3.03;;;2.72;;
55655;SDS011;41530;52.382;5.270;2023-08-06T02:17:01;4.70;;;3.30;;
55655;SDS011;41530;52.382;5.270;2023-08-06T02:19:28;3.20;;;2.17;;
55655;SDS011;41530;52.382;5.270;2023-08-06T02:21:55;3.47;;;3.13;;
55655;SDS011;41530;52.382;5.270;2023-08-06T02:24:21;4.63;;;3.28;;
55655;SDS011;41530;52.382;5.270;2023-08-06T02:26:48;14.20;;;3.17;;
55655;SDS011;41530;52.382;5.270;2023-08-06T02:29:17;8.27;;;4.32;;
55655;SDS011;41530;52.382;5.270;2023-08-06T02:31:44;5.20;;;3.63;;
55655;SDS011;41530;52.382;5.270;2023-08-06T02:34:11;4.10;;;3.60;;
55655;SDS011;41530;52.382;5.270;2023-08-06T02:36:37;4.68;;;3.90;;
55655;SDS011;41530;52.382;5.270;2023-08-06T02:39:04;4.65;;;4.25;;
55655;SDS011;41530;52.382;5.270;2023-08-06T02:41:30;5.82;;;3.90;;
55655;SDS011;41530;52.382;5.270;2023-08-06T02:43:57;6.55;;;4.00;;
55655;SDS011;41530;52.382;5.270;2023-08-06T02:46:24;5.47;;;3.50;;
55655;SDS011;41530;52.382;5.270;2023-08-06T02:48:50;5.40;;;3.58;;
55655;SDS011;41530;52.382;5.270;2023-08-06T02:51:17;6.38;;;4.18;;
55655;SDS011;41530;52.382;5.270;2023-08-06T02:53:43;4.68;;;3.97;;
55655;SDS011;41530;52.382;5.270;2023-08-06T02:56:11;3.70;;;3.30;;
55655;SDS011;41530;52.382;5.270;2023-08-06T02:58:37;5.45;;;3.67;;
55655;SDS011;41530;52.382;5.270;2023-08-06T03:01:04;4.60;;;3.80;;
55655;SDS011;41530;52.382;5.270;2023-08-06T03:03:33;5.03;;;4.15;;
55655;SDS011;41530;52.382;5.270;2023-08-06T03:06:00;5.55;;;3.85;;
55655;SDS011;41530;52.382;5.270;2023-08-06T03:08:28;4.28;;;3.75;;
55655;SDS011;41530;52.382;5.270;2023-08-06T03:10:55;7.13;;;3.67;;
55655;SDS011;41530;52.382;5.270;2023-08-06T03:13:21;5.50;;;3.88;;
55655;SDS011;41530;52.382;5.270;2023-08-06T03:15:54;6.00;;;3.08;;
55655;SDS011;41530;52.382;5.270;2023-08-06T03:18:22;7.20;;;3.75;;
55655;SDS011;41530;52.382;5.270;2023-08-06T03:20:49;3.67;;;3.33;;
55655;SDS011;41530;52.382;5.270;2023-08-06T03:23:16;4.70;;;4.22;;
55655;SDS011;41530;52.382;5.270;2023-08-06T03:25:43;5.57;;;3.80;;
55655;SDS011;41530;52.382;5.270;2023-08-06T03:28:10;7.80;;;3.90;;
55655;SDS011;41530;52.382;5.270;2023-08-06T03:30:36;5.38;;;4.07;;
55655;SDS011;41530;52.382;5.270;2023-08-06T03:33:03;5.38;;;3.97;;
55655;SDS011;41530;52.382;5.270;2023-08-06T03:35:30;10.02;;;4.25;;
55655;SDS011;41530;52.382;5.270;2023-08-06T03:37:57;8.40;;;4.00;;
55655;SDS011;41530;52.382;5.270;2023-08-06T03:40:23;4.28;;;3.78;;
55655;SDS011;41530;52.382;5.270;2023-08-06T03:42:50;4.03;;;3.60;;
55655;SDS011;41530;52.382;5.270;2023-08-06T03:45:17;4.97;;;3.80;;
55655;SDS011;41530;52.382;5.270;2023-08-06T03:47:44;3.50;;;3.20;;
55655;SDS011;41530;52.382;5.270;2023-08-06T03:50:10;4.10;;;3.30;;
55655;SDS011;41530;52.382;5.270;2023-08-06T03:52:37;6.90;;;4.45;;
55655;SDS011;41530;52.382;5.270;2023-08-06T03:55:04;10.20;;;4.05;;
55655;SDS011;41530;52.382;5.270;2023-08-06T03:57:30;4.70;;;3.97;;
55655;SDS011;41530;52.382;5.270;2023-08-06T03:59:57;5.07;;;4.03;;
55655;SDS011;41530;52.382;5.270;2023-08-06T04:02:24;4.45;;;3.92;;
55655;SDS011;41530;52.382;5.270;2023-08-06T04:04:50;7.50;;;3.80;;
55655;SDS011;41530;52.382;5.270;2023-08-06T04:07:19;4.60;;;3.72;;
55655;SDS011;41530;52.382;5.270;2023-08-06T04:09:59;8.95;;;4.55;;
55655;SDS011;41530;52.382;5.270;2023-08-06T04:12:27;6.95;;;4.05;;
55655;SDS011;41530;52.382;5.270;2023-08-06T04:14:54;4.32;;;3.60;;
55655;SDS011;41530;52.382;5.270;2023-08-06T04:17:22;6.13;;;3.40;;
55655;SDS011;41530;52.382;5.270;2023-08-06T04:19:50;6.78;;;4.00;;
55655;SDS011;41530;52.382;5.270;2023-08-06T04:22:18;4.00;;;3.60;;
55655;SDS011;41530;52.382;5.270;2023-08-06T04:24:46;6.10;;;3.97;;
55655;SDS011;41530;52.382;5.270;2023-08-06T04:27:13;5.53;;;3.95;;
55655;SDS011;41530;52.382;5.270;2023-08-06T04:29:41;6.40;;;4.43;;
55655;SDS011;41530;52.382;5.270;2023-08-06T04:32:08;5.22;;;4.13;;
55655;SDS011;41530;52.382;5.270;2023-08-06T04:34:36;4.68;;;4.22;;
55655;SDS011;41530;52.382;5.270;2023-08-06T04:37:04;5.30;;;4.00;;
55655;SDS011;41530;52.382;5.270;2023-08-06T04:39:31;5.68;;;4.70;;
55655;SDS011;41530;52.382;5.270;2023-08-06T04:41:58;6.72;;;4.68;;
55655;SDS011;41530;52.382;5.270;2023-08-06T04:44:25;6.75;;;4.22;;
55655;SDS011;41530;52.382;5.270;2023-08-06T04:46:51;4.03;;;3.55;;
55655;SDS011;41530;52.382;5.270;2023-08-06T04:49:21;6.57;;;4.20;;
55655;SDS011;41530;52.382;5.270;2023-08-06T04:51:48;8.68;;;5.35;;
55655;SDS011;41530;52.382;5.270;2023-08-06T04:54:14;8.63;;;4.38;;
55655;SDS011;41530;52.382;5.270;2023-08-06T04:56:41;4.95;;;3.92;;
55655;SDS011;41530;52.382;5.270;2023-08-06T04:59:08;10.77;;;4.22;;
55655;SDS011;41530;52.382;5.270;2023-08-06T05:01:34;5.18;;;3.83;;
55655;SDS011;41530;52.382;5.270;2023-08-06T05:04:01;5.55;;;4.55;;
55655;SDS011;41530;52.382;5.270;2023-08-06T05:06:28;5.28;;;4.55;;
55655;SDS011;41530;52.382;5.270;2023-08-06T05:08:54;9.55;;;4.50;;
55655;SDS011;41530;52.382;5.270;2023-08-06T05:11:21;5.72;;;4.38;;
55655;SDS011;41530;52.382;5.270;2023-08-06T05:13:48;8.07;;;4.82;;
55655;SDS011;41530;52.382;5.270;2023-08-06T05:16:14;6.43;;;4.32;;
55655;SDS011;41530;52.382;5.270;2023-08-06T05:18:41;13.15;;;4.70;;
55655;SDS011;41530;52.382;5.270;2023-08-06T05:21:08;4.10;;;3.58;;
55655;SDS011;41530;52.382;5.270;2023-08-06T05:23:34;4.35;;;3.40;;
55655;SDS011;41530;52.382;5.270;2023-08-06T05:26:01;6.10;;;4.43;;
55655;SDS011;41530;52.382;5.270;2023-08-06T05:28:28;5.72;;;4.03;;
55655;SDS011;41530;52.382;5.270;2023-08-06T05:30:54;7.50;;;4.45;;
55655;SDS011;41530;52.382;5.270;2023-08-06T05:33:21;4.68;;;3.70;;
55655;SDS011;41530;52.382;5.270;2023-08-06T05:35:48;13.82;;;6.15;;
55655;SDS011;41530;52.382;5.270;2023-08-06T05:38:16;7.53;;;4.70;;
55655;SDS011;41530;52.382;5.270;2023-08-06T05:40:43;5.65;;;4.25;;
55655;SDS011;41530;52.382;5.270;2023-08-06T05:43:10;4.85;;;3.78;;
55655;SDS011;41530;52.382;5.270;2023-08-06T05:45:37;5.60;;;4.78;;
55655;SDS011;41530;52.382;5.270;2023-08-06T05:48:04;4.78;;;4.20;;
55655;SDS011;41530;52.382;5.270;2023-08-06T05:50:31;5.25;;;4.18;;
55655;SDS011;41530;52.382;5.270;2023-08-06T05:52:57;5.00;;;4.47;;
55655;SDS011;41530;52.382;5.270;2023-08-06T05:55:27;5.07;;;4.57;;
55655;SDS011;41530;52.382;5.270;2023-08-06T05:57:54;5.70;;;4.68;;
55655;SDS011;41530;52.382;5.270;2023-08-06T06:00:21;5.63;;;4.03;;
55655;SDS011;41530;52.382;5.270;2023-08-06T06:02:48;5.05;;;4.55;;
55655;SDS011;41530;52.382;5.270;2023-08-06T06:05:14;5.53;;;3.97;;
55655;SDS011;41530;52.382;5.270;2023-08-06T06:07:41;6.63;;;4.05;;
55655;SDS011;41530;52.382;5.270;2023-08-06T06:10:08;6.15;;;3.95;;
55655;SDS011;41530;52.382;5.270;2023-08-06T06:12:35;6.10;;;4.10;;
55655;SDS011;41530;52.382;5.270;2023-08-06T06:15:04;3.85;;;3.40;;
55655;SDS011;41530;52.382;5.270;2023-08-06T06:17:31;3.80;;;3.38;;
55655;SDS011;41530;52.382;5.270;2023-08-06T06:19:58;5.35;;;3.30;;
55655;SDS011;41530;52.382;5.270;2023-08-06T06:22:24;7.25;;;3.70;;
55655;SDS011;41530;52.382;5.270;2023-08-06T06:24:51;3.92;;;2.90;;
55655;SDS011;41530;52.382;5.270;2023-08-06T06:27:18;4.80;;;3.50;;
55655;SDS011;41530;52.382;5.270;2023-08-06T06:29:44;7.35;;;4.15;;
55655;SDS011;41530;52.382;5.270;2023-08-06T06:32:11;6.30;;;4.15;;
55655;SDS011;41530;52.382;5.270;2023-08-06T06:34:38;9.23;;;5.03;;
55655;SDS011;41530;52.382;5.270;2023-08-06T06:37:04;7.70;;;4.07;;
55655;SDS011;41530;52.382;5.270;2023-08-06T06:39:31;6.43;;;4.90;;
55655;SDS011;41530;52.382;5.270;2023-08-06T06:41:58;6.15;;;4.95;;
55655;SDS011;41530;52.382;5.270;2023-08-06T06:44:24;7.05;;;4.82;;
55655;SDS011;41530;52.382;5.270;2023-08-06T06:46:51;5.80;;;4.07;;
55655;SDS011;41530;52.382;5.270;2023-08-06T06:49:17;6.45;;;4.10;;
55655;SDS011;41530;52.382;5.270;2023-08-06T06:51:44;6.35;;;5.65;;
55655;SDS011;41530;52.382;5.270;2023-08-06T06:54:11;4.80;;;3.00;;
55655;SDS011;41530;52.382;5.270;2023-08-06T06:56:38;5.68;;;3.50;;
55655;SDS011;41530;52.382;5.270;2023-08-06T06:59:04;5.32;;;2.80;;
55655;SDS011;41530;52.382;5.270;2023-08-06T07:01:31;9.77;;;4.00;;
55655;SDS011;41530;52.382;5.270;2023-08-06T07:03:58;3.67;;;3.38;;
55655;SDS011;41530;52.382;5.270;2023-08-06T07:06:24;6.53;;;3.85;;
55655;SDS011;41530;52.382;5.270;2023-08-06T07:08:51;4.72;;;3.80;;
55655;SDS011;41530;52.382;5.270;2023-08-06T07:11:18;6.75;;;3.85;;
55655;SDS011;41530;52.382;5.270;2023-08-06T07:13:44;4.82;;;4.22;;
55655;SDS011;41530;52.382;5.270;2023-08-06T07:16:11;10.85;;;6.10;;
55655;SDS011;41530;52.382;5.270;2023-08-06T07:18:38;9.80;;;5.57;;
55655;SDS011;41530;52.382;5.270;2023-08-06T07:21:04;7.72;;;5.15;;
55655;SDS011;41530;52.382;5.270;2023-08-06T07:23:31;4.80;;;4.30;;
55655;SDS011;41530;52.382;5.270;2023-08-06T07:25:58;4.95;;;4.45;;
55655;SDS011;41530;52.382;5.270;2023-08-06T07:28:24;9.73;;;4.55;;
55655;SDS011;41530;52.382;5.270;2023-08-06T07:30:51;6.53;;;4.60;;
55655;SDS011;41530;52.382;5.270;2023-08-06T07:33:18;5.20;;;4.70;;
55655;SDS011;41530;52.382;5.270;2023-08-06T07:35:44;7.28;;;4.20;;
55655;SDS011;41530;52.382;5.270;2023-08-06T07:38:11;6.28;;;4.72;;
55655;SDS011;41530;52.382;5.270;2023-08-06T07:40:38;8.18;;;5.50;;
55655;SDS011;41530;52.382;5.270;2023-08-06T07:43:05;7.68;;;5.18;;
55655;SDS011;41530;52.382;5.270;2023-08-06T07:45:32;5.97;;;4.47;;
55655;SDS011;41530;52.382;5.270;2023-08-06T07:48:02;5.70;;;5.10;;
55655;SDS011;41530;52.382;5.270;2023-08-06T07:50:29;7.22;;;5.95;;
55655;SDS011;41530;52.382;5.270;2023-08-06T07:52:56;8.48;;;5.65;;
55655;SDS011;41530;52.382;5.270;2023-08-06T07:55:23;6.25;;;5.15;;
55655;SDS011;41530;52.382;5.270;2023-08-06T07:57:50;6.35;;;5.18;;
55655;SDS011;41530;52.382;5.270;2023-08-06T08:00:16;6.18;;;5.03;;
55655;SDS011;41530;52.382;5.270;2023-08-06T08:02:43;7.05;;;5.38;;
55655;SDS011;41530;52.382;5.270;2023-08-06T08:05:10;8.35;;;5.07;;
55655;SDS011;41530;52.382;5.270;2023-08-06T08:07:37;6.05;;;4.95;;
55655;SDS011;41530;52.382;5.270;2023-08-06T08:10:03;9.05;;;4.90;;
55655;SDS011;41530;52.382;5.270;2023-08-06T08:12:31;5.82;;;4.53;;
55655;SDS011;41530;52.382;5.270;2023-08-06T08:14:58;6.32;;;5.00;;
55655;SDS011;41530;52.382;5.270;2023-08-06T08:17:24;4.97;;;4.40;;
55655;SDS011;41530;52.382;5.270;2023-08-06T08:19:51;8.75;;;4.03;;
55655;SDS011;41530;52.382;5.270;2023-08-06T08:22:18;6.00;;;3.97;;
55655;SDS011;41530;52.382;5.270;2023-08-06T08:24:44;4.43;;;3.47;;
55655;SDS011;41530;52.382;5.270;2023-08-06T08:27:11;6.03;;;3.20;;
55655;SDS011;41530;52.382;5.270;2023-08-06T08:29:38;3.75;;;3.05;;
55655;SDS011;41530;52.382;5.270;2023-08-06T08:32:04;3.40;;;2.80;;
55655;SDS011;41530;52.382;5.270;2023-08-06T08:34:31;3.28;;;2.78;;
55655;SDS011;41530;52.382;5.270;2023-08-06T08:36:58;4.15;;;2.75;;
55655;SDS011;41530;52.382;5.270;2023-08-06T08:39:24;3.47;;;2.35;;
55655;SDS011;41530;52.382;5.270;2023-08-06T08:41:51;4.05;;;2.28;;
55655;SDS011;41530;52.382;5.270;2023-08-06T08:44:19;2.58;;;2.38;;
55655;SDS011;41530;52.382;5.270;2023-08-06T08:46:46;5.20;;;2.70;;
55655;SDS011;41530;52.382;5.270;2023-08-06T08:49:14;3.25;;;2.40;;
55655;SDS011;41530;52.382;5.270;2023-08-06T08:51:41;3.35;;;2.60;;
55655;SDS011;41530;52.382;5.270;2023-08-06T08:54:09;3.53;;;2.17;;
55655;SDS011;41530;52.382;5.270;2023-08-06T08:56:39;4.28;;;2.00;;
55655;SDS011;41530;52.382;5.270;2023-08-06T08:59:06;2.47;;;2.20;;
55655;SDS011;41530;52.382;5.270;2023-08-06T09:01:32;2.28;;;1.63;;
55655;SDS011;41530;52.382;5.270;2023-08-06T09:04:01;5.55;;;2.10;;
55655;SDS011;41530;52.382;5.270;2023-08-06T09:06:29;3.28;;;1.70;;
55655;SDS011;41530;52.382;5.270;2023-08-06T09:09:11;3.42;;;1.80;;
55655;SDS011;41530;52.382;5.270;2023-08-06T09:11:43;4.10;;;1.60;;
55655;SDS011;41530;52.382;5.270;2023-08-06T09:14:10;6.28;;;1.90;;
55655;SDS011;41530;52.382;5.270;2023-08-06T09:16:38;4.85;;;1.90;;
55655;SDS011;41530;52.382;5.270;2023-08-06T09:19:11;2.72;;;1.83;;
55655;SDS011;41530;52.382;5.270;2023-08-06T09:21:44;4.50;;;1.73;;
55655;SDS011;41530;52.382;5.270;2023-08-06T09:24:14;3.08;;;1.73;;
55655;SDS011;41530;52.382;5.270;2023-08-06T09:26:43;2.92;;;1.65;;
55655;SDS011;41530;52.382;5.270;2023-08-06T09:29:10;3.33;;;1.60;;
55655;SDS011;41530;52.382;5.270;2023-08-06T09:31:45;3.00;;;1.67;;
55655;SDS011;41530;52.382;5.270;2023-08-06T09:34:19;6.32;;;1.70;;
55655;SDS011;41530;52.382;5.270;2023-08-06T09:36:51;3.35;;;1.83;;
55655;SDS011;41530;52.382;5.270;2023-08-06T09:39:20;4.85;;;1.73;;
55655;SDS011;41530;52.382;5.270;2023-08-06T09:41:48;5.40;;;1.73;;
55655;SDS011;41530;52.382;5.270;2023-08-06T09:44:24;2.97;;;1.58;;
55655;SDS011;41530;52.382;5.270;2023-08-06T09:46:53;2.13;;;1.60;;
55655;SDS011;41530;52.382;5.270;2023-08-06T09:49:41;7.65;;;2.08;;
55655;SDS011;41530;52.382;5.270;2023-08-06T09:52:12;3.28;;;1.77;;
55655;SDS011;41530;52.382;5.270;2023-08-06T09:54:40;2.40;;;1.63;;
55655;SDS011;41530;52.382;5.270;2023-08-06T09:57:06;4.10;;;1.70;;
55655;SDS011;41530;52.382;5.270;2023-08-06T09:59:35;4.20;;;1.73;;
55655;SDS011;41530;52.382;5.270;2023-08-06T10:02:03;2.47;;;1.63;;
55655;SDS011;41530;52.382;5.270;2023-08-06T10:04:39;3.65;;;1.70;;
55655;SDS011;41530;52.382;5.270;2023-08-06T10:07:07;3.33;;;1.80;;
55655;SDS011;41530;52.382;5.270;2023-08-06T10:09:34;2.55;;;1.75;;
55655;SDS011;41530;52.382;5.270;2023-08-06T10:12:01;2.60;;;1.58;;
55655;SDS011;41530;52.382;5.270;2023-08-06T10:14:30;2.60;;;1.63;;
55655;SDS011;41530;52.382;5.270;2023-08-06T10:16:59;2.20;;;1.58;;
55655;SDS011;41530;52.382;5.270;2023-08-06T10:19:27;2.95;;;1.70;;
55655;SDS011;41530;52.382;5.270;2023-08-06T10:24:46;2.28;;;1.85;;
55655;SDS011;41530;52.382;5.270;2023-08-06T10:27:21;2.85;;;1.80;;
55655;SDS011;41530;52.382;5.270;2023-08-06T10:30:41;2.05;;;1.73;;
55655;SDS011;41530;52.382;5.270;2023-08-06T10:32:50;4.15;;;1.90;;
55655;SDS011;41530;52.382;5.270;2023-08-06T10:35:37;3.13;;;1.70;;
55655;SDS011;41530;52.382;5.270;2023-08-06T10:38:09;2.70;;;2.10;;
55655;SDS011;41530;52.382;5.270;2023-08-06T10:40:37;3.40;;;1.85;;
55655;SDS011;41530;52.382;5.270;2023-08-06T10:43:06;3.58;;;2.20;;
55655;SDS011;41530;52.382;5.270;2023-08-06T10:45:35;3.15;;;2.00;;
55655;SDS011;41530;52.382;5.270;2023-08-06T10:48:03;4.85;;;1.77;;
55655;SDS011;41530;52.382;5.270;2023-08-06T10:50:30;2.55;;;1.70;;
55655;SDS011;41530;52.382;5.270;2023-08-06T10:52:57;2.03;;;1.70;;
55655;SDS011;41530;52.382;5.270;2023-08-06T10:55:30;3.03;;;1.80;;
55655;SDS011;41530;52.382;5.270;2023-08-06T10:57:56;3.70;;;2.28;;
55655;SDS011;41530;52.382;5.270;2023-08-06T11:00:24;3.40;;;1.65;;
55655;SDS011;41530;52.382;5.270;2023-08-06T11:02:52;3.00;;;2.03;;
55655;SDS011;41530;52.382;5.270;2023-08-06T11:05:19;2.92;;;2.30;;
55655;SDS011;41530;52.382;5.270;2023-08-06T11:07:46;4.97;;;1.80;;
55655;SDS011;41530;52.382;5.270;2023-08-06T11:10:15;3.45;;;2.00;;
55655;SDS011;41530;52.382;5.270;2023-08-06T11:12:41;9.30;;;2.30;;
55655;SDS011;41530;52.382;5.270;2023-08-06T11:15:09;5.60;;;2.22;;
55655;SDS011;41530;52.382;5.270;2023-08-06T11:17:39;3.88;;;2.05;;
55655;SDS011;41530;52.382;5.270;2023-08-06T11:20:06;5.68;;;2.17;;
55655;SDS011;41530;52.382;5.270;2023-08-06T11:22:35;5.05;;;2.20;;
55655;SDS011;41530;52.382;5.270;2023-08-06T11:25:02;2.97;;;1.98;;
55655;SDS011;41530;52.382;5.270;2023-08-06T11:27:29;4.65;;;1.80;;
55655;SDS011;41530;52.382;5.270;2023-08-06T11:29:56;3.42;;;2.10;;
55655;SDS011;41530;52.382;5.270;2023-08-06T11:32:22;5.65;;;1.90;;
55655;SDS011;41530;52.382;5.270;2023-08-06T11:34:49;2.40;;;1.77;;
55655;SDS011;41530;52.382;5.270;2023-08-06T11:37:16;2.58;;;1.70;;
55655;SDS011;41530;52.382;5.270;2023-08-06T11:39:48;4.25;;;1.88;;
55655;SDS011;41530;52.382;5.270;2023-08-06T11:42:15;6.93;;;2.05;;
55655;SDS011;41530;52.382;5.270;2023-08-06T11:44:42;7.38;;;1.90;;
55655;SDS011;41530;52.382;5.270;2023-08-06T11:47:12;4.95;;;1.95;;
55655;SDS011;41530;52.382;5.270;2023-08-06T11:57:37;4.82;;;2.40;;
55655;SDS011;41530;52.382;5.270;2023-08-06T12:00:08;3.80;;;2.05;;
55655;SDS011;41530;52.382;5.270;2023-08-06T12:02:40;4.78;;;2.08;;
55655;SDS011;41530;52.382;5.270;2023-08-06T12:07:38;4.13;;;1.88;;
55655;SDS011;41530;52.382;5.270;2023-08-06T12:10:07;2.50;;;1.75;;
55655;SDS011;41530;52.382;5.270;2023-08-06T12:12:35;3.65;;;1.85;;
55655;SDS011;41530;52.382;5.270;2023-08-06T12:15:02;3.85;;;1.80;;
55655;SDS011;41530;52.382;5.270;2023-08-06T12:17:29;3.00;;;2.03;;
55655;SDS011;41530;52.382;5.270;2023-08-06T12:19:56;3.60;;;2.03;;
55655;SDS011;41530;52.382;5.270;2023-08-06T12:22:22;2.22;;;1.60;;
55655;SDS011;41530;52.382;5.270;2023-08-06T12:24:50;6.35;;;1.92;;
55655;SDS011;41530;52.382;5.270;2023-08-06T12:27:17;3.17;;;1.90;;
55655;SDS011;41530;52.382;5.270;2023-08-06T12:29:45;6.25;;;1.70;;
55655;SDS011;41530;52.382;5.270;2023-08-06T12:32:13;11.57;;;2.08;;
55655;SDS011;41530;52.382;5.270;2023-08-06T12:34:40;5.30;;;1.77;;
55655;SDS011;41530;52.382;5.270;2023-08-06T12:37:18;3.90;;;1.50;;
55655;SDS011;41530;52.382;5.270;2023-08-06T12:39:45;9.18;;;1.70;;
55655;SDS011;41530;52.382;5.270;2023-08-06T12:42:12;4.88;;;1.50;;
55655;SDS011;41530;52.382;5.270;2023-08-06T12:44:39;3.88;;;1.55;;
55655;SDS011;41530;52.382;5.270;2023-08-06T12:47:06;4.38;;;1.73;;
55655;SDS011;41530;52.382;5.270;2023-08-06T12:49:34;6.25;;;2.00;;
55655;SDS011;41530;52.382;5.270;2023-08-06T12:52:01;2.08;;;1.52;;
55655;SDS011;41530;52.382;5.270;2023-08-06T12:54:27;6.47;;;1.95;;
55655;SDS011;41530;52.382;5.270;2023-08-06T12:56:54;3.60;;;1.83;;
55655;SDS011;41530;52.382;5.270;2023-08-06T12:59:22;4.80;;;1.77;;
55655;SDS011;41530;52.382;5.270;2023-08-06T13:01:49;3.42;;;1.92;;
55655;SDS011;41530;52.382;5.270;2023-08-06T13:04:16;2.65;;;1.60;;
55655;SDS011;41530;52.382;5.270;2023-08-06T13:06:48;2.80;;;1.70;;
55655;SDS011;41530;52.382;5.270;2023-08-06T13:09:15;2.38;;;1.83;;
55655;SDS011;41530;52.382;5.270;2023-08-06T13:11:42;3.38;;;1.73;;
55655;SDS011;41530;52.382;5.270;2023-08-06T13:14:13;7.38;;;1.63;;
55655;SDS011;41530;52.382;5.270;2023-08-06T13:16:40;4.00;;;1.88;;
55655;SDS011;41530;52.382;5.270;2023-08-06T13:19:09;2.72;;;1.67;;
55655;SDS011;41530;52.382;5.270;2023-08-06T13:24:18;2.63;;;1.45;;
55655;SDS011;41530;52.382;5.270;2023-08-06T13:26:45;2.92;;;1.73;;
55655;SDS011;41530;52.382;5.270;2023-08-06T13:29:12;2.97;;;1.63;;
55655;SDS011;41530;52.382;5.270;2023-08-06T13:31:39;3.22;;;1.60;;
55655;SDS011;41530;52.382;5.270;2023-08-06T13:34:05;3.35;;;1.83;;
55655;SDS011;41530;52.382;5.270;2023-08-06T13:36:32;2.03;;;1.40;;
55655;SDS011;41530;52.382;5.270;2023-08-06T13:38:59;2.83;;;1.33;;
55655;SDS011;41530;52.382;5.270;2023-08-06T13:41:25;3.20;;;1.70;;
55655;SDS011;41530;52.382;5.270;2023-08-06T13:43:52;1.95;;;1.52;;
55655;SDS011;41530;52.382;5.270;2023-08-06T13:46:18;4.05;;;1.60;;
55655;SDS011;41530;52.382;5.270;2023-08-06T13:48:47;3.92;;;1.67;;
55655;SDS011;41530;52.382;5.270;2023-08-06T13:51:18;3.40;;;1.70;;
55655;SDS011;41530;52.382;5.270;2023-08-06T13:53:45;2.22;;;1.60;;
55655;SDS011;41530;52.382;5.270;2023-08-06T13:56:11;2.78;;;1.60;;
55655;SDS011;41530;52.382;5.270;2023-08-06T13:58:38;4.43;;;1.70;;
55655;SDS011;41530;52.382;5.270;2023-08-06T14:01:05;3.55;;;1.60;;
55655;SDS011;41530;52.382;5.270;2023-08-06T14:03:33;8.27;;;2.60;;
55655;SDS011;41530;52.382;5.270;2023-08-06T14:06:00;5.40;;;1.70;;
55655;SDS011;41530;52.382;5.270;2023-08-06T14:08:27;3.17;;;1.38;;
55655;SDS011;41530;52.382;5.270;2023-08-06T14:10:54;2.45;;;1.50;;
55655;SDS011;41530;52.382;5.270;2023-08-06T14:13:21;2.85;;;1.60;;
55655;SDS011;41530;52.382;5.270;2023-08-06T14:15:48;1.58;;;1.42;;
55655;SDS011;41530;52.382;5.270;2023-08-06T14:18:16;2.72;;;1.40;;
55655;SDS011;41530;52.382;5.270;2023-08-06T14:20:43;2.00;;;1.25;;
55655;SDS011;41530;52.382;5.270;2023-08-06T14:23:10;1.67;;;1.40;;
55655;SDS011;41530;52.382;5.270;2023-08-06T14:25:38;2.30;;;1.45;;
55655;SDS011;41530;52.382;5.270;2023-08-06T14:28:05;2.72;;;1.23;;
55655;SDS011;41530;52.382;5.270;2023-08-06T14:30:33;2.63;;;0.90;;
55655;SDS011;41530;52.382;5.270;2023-08-06T14:33:00;1.70;;;1.20;;
55655;SDS011;41530;52.382;5.270;2023-08-06T14:35:46;3.67;;;1.30;;
55655;SDS011;41530;52.382;5.270;2023-08-06T14:38:13;2.45;;;1.10;;
55655;SDS011;41530;52.382;5.270;2023-08-06T14:40:40;6.78;;;1.55;;
55655;SDS011;41530;52.382;5.270;2023-08-06T14:43:07;7.20;;;1.52;;
55655;SDS011;41530;52.382;5.270;2023-08-06T14:45:33;2.63;;;1.25;;
55655;SDS011;41530;52.382;5.270;2023-08-06T14:48:04;3.05;;;1.50;;
55655;SDS011;41530;52.382;5.270;2023-08-06T14:50:30;2.95;;;1.23;;
55655;SDS011;41530;52.382;5.270;2023-08-06T14:52:57;2.78;;;1.30;;
55655;SDS011;41530;52.382;5.270;2023-08-06T14:55:30;3.42;;;1.23;;
55655;SDS011;41530;52.382;5.270;2023-08-06T14:57:56;3.67;;;1.30;;
55655;SDS011;41530;52.382;5.270;2023-08-06T15:00:23;4.20;;;1.35;;
55655;SDS011;41530;52.382;5.270;2023-08-06T15:02:50;5.88;;;1.13;;
55655;SDS011;41530;52.382;5.270;2023-08-06T15:05:16;3.42;;;1.58;;
55655;SDS011;41530;52.382;5.270;2023-08-06T15:07:44;3.30;;;1.00;;
55655;SDS011;41530;52.382;5.270;2023-08-06T15:10:10;2.22;;;1.20;;
55655;SDS011;41530;52.382;5.270;2023-08-06T15:12:40;3.33;;;1.40;;
55655;SDS011;41530;52.382;5.270;2023-08-06T15:15:07;5.57;;;1.02;;